الصفحة الرئيسية
METAR-TAF:

METAR-TAF

مطار :

مطار بشار - بودغن بن علي لطفي

بشار, الجزائر

دائرة عرض: 31-37N, خط طول: 002-14W, ارتفاع: 773 متر

مراقبة الطقس الحالي

تاريخ ووقت الإصدار 29 دقيقة قبل الساعة 15:00UTC
ريح 6 عقدة من الجنوب/الجنوب الغربي
درجة الحرارة 14°درجة مئوية
الرطوبة 33%
ضغط 1012 hPa
الرؤية 10 كم أو أكثر
غيوم متفرقة على ارتفاع 3300 قدم

METAR: DAOR 211500Z 20006KT 9999 SCT033 14/M02 Q1012

زمن: 16:29 (15:29 UTC)

توقعات

تاريخ ووقت الإصدار 1ساعة و 29 دقيقة قبل الساعة 14:00UTC
التوقعات صالحة من21 الساعة 15 UTC إلى 21 الساعة 24 UTC
ريح 6 عقدة من الشرق
الرؤية 10 كم أو أكثر
غيوم متفرقة على ارتفاع 3300 قدم
غيوم متفرقة على ارتفاع 10000 قدم

TAF: DAOR 211400Z 2115/2124 08006KT 9999 SCT033 SCT100

أرصاد الطقس والتوقعات من أكثر من 4000 مطار (تقارير الطقس للمطار METAR والتنبؤ بالطقس بالمطارTAF).

المحطات المتاحة هي النقط الصفراء والحمراء على الخريطة.

حرك المؤشر فوق النقطة لمعرفة اسم المحطة.

ثم انقر لمعرفة أرصاد وتوقعات الطقس.

لتغيير الخارطة: اضغط على الأزرار الخضراء مع رمز الصليب الأسود للتكبير. على الزر الأخضر مع شرطة للتصغير، أو على الأسهم الخضراء للخرائط المجاورة.


METAR-TAF: